createdAt,value
2022-12-01T00:00:59.443Z,15.40
2022-12-01T00:03:26.052Z,14.10
2022-12-01T00:06:04.474Z,14.48
2022-12-01T00:08:30.782Z,14.23
2022-12-01T00:11:07.062Z,14.80
2022-12-01T00:13:33.977Z,13.23
2022-12-01T00:16:14.123Z,13.32
2022-12-01T00:18:40.587Z,12.68
2022-12-01T00:21:13.661Z,11.70
2022-12-01T00:23:46.736Z,11.65
2022-12-01T00:26:13.101Z,15.00
2022-12-01T00:28:39.056Z,12.55
2022-12-01T00:31:11.985Z,12.77
2022-12-01T00:33:38.959Z,13.05
2022-12-01T00:36:05.386Z,15.50
2022-12-01T00:38:32.232Z,11.85
2022-12-01T00:40:57.985Z,13.82
2022-12-01T00:43:24.334Z,12.07
2022-12-01T00:45:50.992Z,13.10
2022-12-01T00:48:17.637Z,12.57
2022-12-01T00:50:43.951Z,11.80
2022-12-01T00:53:09.861Z,12.15
2022-12-01T00:55:35.697Z,13.13
2022-12-01T00:58:01.570Z,11.80
2022-12-01T01:00:27.432Z,12.05
2022-12-01T01:02:53.724Z,13.88
2022-12-01T01:05:19.902Z,12.85
2022-12-01T01:07:45.745Z,13.18
2022-12-01T01:10:11.696Z,15.02
2022-12-01T01:12:37.642Z,13.27
2022-12-01T01:15:05.352Z,13.02
2022-12-01T01:17:32.572Z,13.30
2022-12-01T01:19:58.381Z,13.45
2022-12-01T01:22:24.566Z,13.93
2022-12-01T01:24:50.392Z,12.88
2022-12-01T01:27:16.342Z,12.85
2022-12-01T01:29:42.176Z,12.82
2022-12-01T01:32:08.365Z,12.73
2022-12-01T01:34:34.277Z,14.27
2022-12-01T01:37:00.139Z,13.18
2022-12-01T01:39:26.338Z,11.80
2022-12-01T01:41:52.131Z,11.05
2022-12-01T01:44:49.473Z,11.95
2022-12-01T01:47:19.963Z,11.45
2022-12-01T01:49:46.397Z,11.10
2022-12-01T01:52:13.730Z,12.13
2022-12-01T01:54:45.406Z,11.70
2022-12-01T01:57:16.133Z,11.43
2022-12-01T01:59:50.642Z,11.10
2022-12-01T02:02:16.856Z,10.98
2022-12-01T02:04:49.463Z,12.90
2022-12-01T02:07:17.909Z,11.25
2022-12-01T02:09:44.248Z,12.35
2022-12-01T02:12:38.231Z,12.73
2022-12-01T02:15:41.355Z,11.48
2022-12-01T02:18:49.604Z,11.52
2022-12-01T02:21:21.175Z,12.02
2022-12-01T02:24:17.946Z,11.60
2022-12-01T02:27:06.250Z,15.55
2022-12-01T02:29:40.787Z,11.50
2022-12-01T02:32:35.265Z,13.75
2022-12-01T02:35:14.905Z,13.98
2022-12-01T02:38:06.046Z,12.38
2022-12-01T02:40:31.870Z,12.90
2022-12-01T02:43:06.962Z,14.35
2022-12-01T02:45:49.597Z,13.15
2022-12-01T02:48:26.040Z,13.88
2022-12-01T02:50:54.381Z,11.90
2022-12-01T02:53:21.344Z,13.13
2022-12-01T02:55:57.182Z,13.52
2022-12-01T02:58:23.048Z,13.88
2022-12-01T03:01:12.167Z,13.48
2022-12-01T03:04:14.956Z,12.82
2022-12-01T03:07:16.226Z,14.23
2022-12-01T03:09:54.255Z,13.30
2022-12-01T03:12:29.160Z,14.90
2022-12-01T03:15:18.378Z,13.07
2022-12-01T03:17:46.479Z,14.63
2022-12-01T03:20:21.254Z,14.88
2022-12-01T03:22:55.891Z,16.00
2022-12-01T03:25:25.720Z,16.43
2022-12-01T03:28:20.192Z,17.33
2022-12-01T03:30:44.930Z,19.33
2022-12-01T03:33:20.386Z,17.58
2022-12-01T03:36:14.331Z,19.23
2022-12-01T03:38:46.160Z,18.00
2022-12-01T03:41:17.482Z,18.63
2022-12-01T03:43:50.975Z,20.17
2022-12-01T03:46:19.629Z,18.38
2022-12-01T03:48:45.974Z,22.50
2022-12-01T03:51:24.943Z,21.15
2022-12-01T03:53:58.903Z,23.95
2022-12-01T03:56:29.969Z,22.38
2022-12-01T03:58:58.506Z,21.35
2022-12-01T04:01:25.980Z,22.38
2022-12-01T04:03:51.810Z,22.08
2022-12-01T04:06:17.619Z,26.52
2022-12-01T04:08:43.438Z,24.40
2022-12-01T04:11:32.497Z,24.52
2022-12-01T04:13:58.818Z,24.65
2022-12-01T04:16:24.969Z,26.05
2022-12-01T04:18:50.877Z,27.17
2022-12-01T04:21:16.724Z,24.60
2022-12-01T04:24:00.916Z,25.15
2022-12-01T04:26:28.728Z,30.70
2022-12-01T04:28:54.550Z,27.83
2022-12-01T04:31:20.829Z,25.52
2022-12-01T04:33:46.707Z,24.52
2022-12-01T04:36:12.558Z,22.13
2022-12-01T04:38:39.723Z,25.58
2022-12-01T04:41:12.840Z,22.75
2022-12-01T04:43:39.487Z,22.65
2022-12-01T04:46:06.510Z,24.02
2022-12-01T04:48:35.237Z,20.05
2022-12-01T04:51:02.675Z,24.05
2022-12-01T04:53:29.330Z,21.50
2022-12-01T04:55:56.518Z,20.42
2022-12-01T04:58:22.309Z,19.55
2022-12-01T05:00:48.251Z,21.17
2022-12-01T05:03:15.291Z,20.45
2022-12-01T05:05:41.566Z,20.25
2022-12-01T05:08:07.716Z,19.70
2022-12-01T05:10:37.870Z,20.48
2022-12-01T05:13:05.485Z,19.90
2022-12-01T05:15:31.464Z,19.40
2022-12-01T05:17:57.875Z,20.00
2022-12-01T05:20:43.803Z,26.35
2022-12-01T05:25:42.544Z,23.70
2022-12-01T05:28:08.316Z,25.20
2022-12-01T05:30:34.108Z,26.83
2022-12-01T05:32:59.947Z,25.63
2022-12-01T05:35:26.757Z,25.17
2022-12-01T05:37:52.618Z,22.17
2022-12-01T05:40:18.681Z,24.65
2022-12-01T05:42:44.531Z,26.08
2022-12-01T05:45:10.486Z,23.98
2022-12-01T05:47:36.267Z,25.13
2022-12-01T05:50:05.805Z,23.80
2022-12-01T05:52:35.615Z,27.58
2022-12-01T05:55:05.447Z,23.88
2022-12-01T05:57:32.365Z,26.20
2022-12-01T05:59:58.348Z,23.73
2022-12-01T06:02:26.357Z,23.60
2022-12-01T06:04:52.929Z,22.27
2022-12-01T06:07:19.704Z,30.73
2022-12-01T06:09:45.836Z,21.98
2022-12-01T06:12:12.356Z,20.83
2022-12-01T06:14:38.344Z,21.85
2022-12-01T06:17:04.473Z,20.15
2022-12-01T06:19:30.878Z,19.55
2022-12-01T06:21:57.283Z,19.73
2022-12-01T06:24:23.256Z,19.55
2022-12-01T06:26:49.208Z,17.08
2022-12-01T06:29:15.320Z,19.95
2022-12-01T06:31:41.477Z,17.08
2022-12-01T06:34:07.860Z,19.23
2022-12-01T06:36:34.095Z,15.25
2022-12-01T06:38:59.914Z,18.98
2022-12-01T06:41:25.751Z,18.02
2022-12-01T06:43:51.642Z,14.77
2022-12-01T06:46:17.800Z,15.63
2022-12-01T06:48:44.239Z,19.08
2022-12-01T06:51:11.081Z,15.85
2022-12-01T06:53:37.042Z,13.60
2022-12-01T06:56:04.534Z,17.08
2022-12-01T06:58:31.547Z,15.57
2022-12-01T07:00:58.360Z,16.35
2022-12-01T07:03:24.445Z,15.57
2022-12-01T07:05:58.472Z,17.77
2022-12-01T07:08:25.615Z,16.17
2022-12-01T07:11:02.417Z,18.67
2022-12-01T07:13:33.039Z,13.90
2022-12-01T07:15:59.925Z,16.95
2022-12-01T07:18:25.660Z,15.68
2022-12-01T07:20:51.488Z,15.50
2022-12-01T07:23:17.310Z,16.42
2022-12-01T07:25:43.195Z,15.38
2022-12-01T07:28:09.088Z,15.73
2022-12-01T07:30:35.143Z,17.63
2022-12-01T07:33:01.269Z,18.95
2022-12-01T07:35:27.134Z,16.55
2022-12-01T07:37:56.174Z,15.00
2022-12-01T07:40:22.464Z,18.38
2022-12-01T07:42:48.596Z,16.05
2022-12-01T07:45:14.395Z,15.55
2022-12-01T07:47:40.636Z,15.73
2022-12-01T07:50:07.072Z,18.67
2022-12-01T07:52:32.868Z,16.40
2022-12-01T07:54:58.702Z,15.77
2022-12-01T07:57:24.558Z,15.10
2022-12-01T07:59:52.244Z,26.25
2022-12-01T08:02:18.170Z,16.13
2022-12-01T08:04:44.048Z,14.43
2022-12-01T08:07:09.833Z,14.23
2022-12-01T08:09:35.761Z,15.65
2022-12-01T08:12:01.588Z,13.88
2022-12-01T08:14:27.335Z,13.02
2022-12-01T08:16:53.213Z,12.43
2022-12-01T08:19:19.133Z,12.05
2022-12-01T08:21:44.969Z,15.18
2022-12-01T08:24:10.958Z,13.60
2022-12-01T08:26:36.923Z,13.93
2022-12-01T08:29:02.914Z,14.00
2022-12-01T08:31:32.341Z,15.43
2022-12-01T08:33:59.385Z,16.25
2022-12-01T08:36:25.295Z,14.52
2022-12-01T08:38:53.473Z,15.38
2022-12-01T08:41:20.546Z,15.32
2022-12-01T08:44:02.099Z,15.77
2022-12-01T08:46:32.747Z,15.27
2022-12-01T08:48:59.218Z,16.92
2022-12-01T08:51:26.178Z,18.38
2022-12-01T08:53:53.528Z,16.80
2022-12-01T08:56:22.437Z,16.23
2022-12-01T08:58:49.648Z,17.27
2022-12-01T09:01:16.426Z,17.27
2022-12-01T09:03:43.443Z,19.15
2022-12-01T09:06:13.548Z,20.00
2022-12-01T09:08:40.415Z,20.05
2022-12-01T09:11:15.244Z,20.33
2022-12-01T09:13:42.460Z,20.27
2022-12-01T09:16:12.409Z,19.50
2022-12-01T09:18:38.786Z,21.52
2022-12-01T09:21:12.993Z,22.15
2022-12-01T09:23:39.233Z,23.60
2022-12-01T09:26:10.844Z,24.42
2022-12-01T09:28:39.414Z,22.42
2022-12-01T09:31:08.043Z,24.55
2022-12-01T09:33:34.472Z,23.70
2022-12-01T09:36:02.084Z,22.27
2022-12-01T09:38:28.924Z,23.20
2022-12-01T09:40:56.009Z,23.10
2022-12-01T09:43:29.076Z,22.10
2022-12-01T09:46:02.202Z,21.02
2022-12-01T09:48:42.021Z,22.27
2022-12-01T09:51:16.419Z,21.75
2022-12-01T09:53:43.979Z,22.40
2022-12-01T09:56:41.728Z,23.52
2022-12-01T09:59:17.146Z,22.70
2022-12-01T10:01:45.878Z,24.73
2022-12-01T10:04:30.693Z,22.50
2022-12-01T10:07:03.038Z,23.67
2022-12-01T10:09:52.786Z,24.40
2022-12-01T10:12:23.032Z,24.20
2022-12-01T10:14:50.012Z,26.42
2022-12-01T10:17:34.507Z,29.92
2022-12-01T10:20:09.245Z,26.55
2022-12-01T10:22:53.716Z,29.33
2022-12-01T10:25:25.818Z,29.08
2022-12-01T10:28:11.828Z,27.92
2022-12-01T10:33:24.030Z,30.30
2022-12-01T10:35:50.106Z,33.10
2022-12-01T10:38:26.640Z,31.85
2022-12-01T10:41:00.302Z,32.83
2022-12-01T10:43:38.569Z,34.03
2022-12-01T10:46:25.163Z,30.50
2022-12-01T10:48:56.391Z,31.27
2022-12-01T10:51:23.690Z,30.90
2022-12-01T10:53:50.047Z,30.95
2022-12-01T10:56:19.227Z,33.17
2022-12-01T10:58:49.556Z,33.30
2022-12-01T11:01:24.142Z,34.20
2022-12-01T11:04:22.430Z,32.90
2022-12-01T11:06:49.630Z,32.92
2022-12-01T11:09:26.036Z,32.80
2022-12-01T11:11:57.987Z,34.50
2022-12-01T11:14:43.097Z,33.80
2022-12-01T11:17:16.507Z,28.07
2022-12-01T11:19:43.150Z,35.38
2022-12-01T11:22:22.638Z,34.65
2022-12-01T11:24:54.623Z,34.05
2022-12-01T11:27:23.563Z,32.83
2022-12-01T11:29:52.507Z,33.70
2022-12-01T11:32:30.643Z,32.42
2022-12-01T11:35:00.323Z,30.88
2022-12-01T11:37:38.399Z,30.48
2022-12-01T11:40:24.894Z,31.35
2022-12-01T11:42:54.014Z,29.90
2022-12-01T11:45:27.885Z,29.92
2022-12-01T11:48:14.852Z,36.22
2022-12-01T11:50:42.172Z,33.13
2022-12-01T11:53:33.173Z,29.58
2022-12-01T11:56:15.892Z,29.83
2022-12-01T11:58:43.786Z,29.13
2022-12-01T12:01:24.592Z,29.33
2022-12-01T12:04:13.804Z,29.90
2022-12-01T12:07:24.369Z,28.77
2022-12-01T12:10:08.367Z,30.23
2022-12-01T12:13:15.057Z,31.55
2022-12-01T12:16:04.391Z,29.65
2022-12-01T12:18:43.672Z,29.77
2022-12-01T12:21:40.859Z,29.40
2022-12-01T12:24:31.819Z,28.95
2022-12-01T12:27:03.567Z,27.92
2022-12-01T12:29:49.811Z,32.70
2022-12-01T12:32:21.607Z,29.83
2022-12-01T12:34:54.124Z,33.47
2022-12-01T12:37:32.676Z,28.58
2022-12-01T12:40:23.370Z,28.67
2022-12-01T12:43:26.155Z,29.58
2022-12-01T12:46:12.306Z,28.85
2022-12-01T12:49:18.031Z,29.60
2022-12-01T12:51:48.619Z,30.00
2022-12-01T12:54:26.149Z,30.42
2022-12-01T12:57:01.504Z,28.25
2022-12-01T12:59:40.146Z,30.83
2022-12-01T13:02:15.030Z,29.45
2022-12-01T13:05:04.516Z,30.38
2022-12-01T13:07:57.843Z,31.27
2022-12-01T13:10:39.016Z,30.45
2022-12-01T13:13:51.121Z,30.02
2022-12-01T13:16:26.406Z,30.58
2022-12-01T13:19:03.513Z,31.80
2022-12-01T13:21:36.593Z,32.22
2022-12-01T13:24:04.486Z,33.25
2022-12-01T13:26:34.138Z,29.33
2022-12-01T13:29:05.685Z,31.85
2022-12-01T13:31:43.150Z,30.25
2022-12-01T13:34:38.328Z,31.70
2022-12-01T13:37:04.759Z,29.30
2022-12-01T13:39:37.308Z,29.13
2022-12-01T13:42:20.767Z,30.05
2022-12-01T13:44:54.292Z,30.35
2022-12-01T13:47:20.159Z,31.05
2022-12-01T13:49:48.678Z,33.28
2022-12-01T13:52:17.880Z,32.00
2022-12-01T13:55:00.731Z,32.90
2022-12-01T13:57:28.739Z,33.28
2022-12-01T13:59:57.523Z,35.63
2022-12-01T14:02:24.932Z,32.58
2022-12-01T14:04:51.511Z,32.40
2022-12-01T14:07:27.131Z,33.05
2022-12-01T14:12:28.537Z,34.08
2022-12-01T14:15:01.383Z,31.55
2022-12-01T14:17:30.929Z,32.63
2022-12-01T14:20:12.253Z,33.20
2022-12-01T14:22:43.213Z,34.90
2022-12-01T14:25:21.776Z,32.15
2022-12-01T14:27:57.146Z,29.50
2022-12-01T14:30:41.323Z,30.27
2022-12-01T14:33:44.578Z,31.17
2022-12-01T14:36:22.345Z,29.40
2022-12-01T14:38:51.835Z,28.67
2022-12-01T14:41:40.598Z,31.55
2022-12-01T14:44:26.597Z,30.60
2022-12-01T14:49:24.882Z,29.80
2022-12-01T14:51:55.907Z,28.38
2022-12-01T14:54:29.423Z,26.17
2022-12-01T14:57:04.338Z,28.73
2022-12-01T14:59:32.391Z,28.13
2022-12-01T15:02:08.369Z,29.15
2022-12-01T15:04:55.207Z,27.00
2022-12-01T15:07:22.352Z,27.42
2022-12-01T15:09:59.575Z,28.45
2022-12-01T15:12:27.396Z,27.60
2022-12-01T15:14:53.620Z,28.60
2022-12-01T15:17:31.684Z,28.80
2022-12-01T15:19:58.392Z,28.77
2022-12-01T15:22:29.843Z,30.23
2022-12-01T15:25:19.936Z,30.92
2022-12-01T15:27:45.908Z,32.17
2022-12-01T15:30:13.812Z,33.63
2022-12-01T15:32:45.197Z,33.67
2022-12-01T15:35:19.502Z,30.65
2022-12-01T15:37:47.058Z,32.55
2022-12-01T15:43:15.995Z,31.02
2022-12-01T15:45:50.184Z,34.70
2022-12-01T15:48:24.088Z,34.35
2022-12-01T15:51:11.357Z,33.72
2022-12-01T15:53:45.126Z,33.25
2022-12-01T15:56:11.703Z,36.70
2022-12-01T15:58:46.736Z,34.90
2022-12-01T16:01:16.789Z,33.58
2022-12-01T16:03:45.555Z,34.40
2022-12-01T16:06:12.159Z,36.70
2022-12-01T16:08:38.286Z,34.53
2022-12-01T16:11:18.174Z,34.78
2022-12-01T16:13:59.736Z,36.97
2022-12-01T16:16:38.115Z,36.50
2022-12-01T16:19:07.000Z,37.25
2022-12-01T16:21:42.078Z,37.63
2022-12-01T16:24:33.249Z,37.67
2022-12-01T16:27:05.964Z,35.15
2022-12-01T16:30:07.670Z,37.60
2022-12-01T16:32:37.624Z,36.20
2022-12-01T16:35:05.625Z,35.22
2022-12-01T16:37:31.647Z,35.20
2022-12-01T16:39:58.025Z,37.08
2022-12-01T16:42:24.240Z,32.03
2022-12-01T16:44:51.050Z,29.88
2022-12-01T16:47:18.429Z,29.27
2022-12-01T16:49:44.345Z,28.05
2022-12-01T16:54:56.505Z,29.55
2022-12-01T16:57:22.423Z,28.05
2022-12-01T16:59:48.399Z,29.73
2022-12-01T17:02:14.379Z,28.88
2022-12-01T17:04:40.409Z,31.23
2022-12-01T17:07:06.242Z,29.58
2022-12-01T17:09:32.120Z,28.95
2022-12-01T17:11:58.557Z,30.88
2022-12-01T17:14:24.772Z,29.80
2022-12-01T17:16:50.828Z,29.90
2022-12-01T17:19:17.231Z,31.10
2022-12-01T17:21:43.049Z,30.63
2022-12-01T17:24:09.507Z,29.75
2022-12-01T17:26:35.606Z,29.92
2022-12-01T17:29:01.978Z,29.13
2022-12-01T17:31:28.090Z,28.00
2022-12-01T17:33:54.261Z,29.95
2022-12-01T17:36:20.188Z,27.30
2022-12-01T17:38:46.497Z,29.35
2022-12-01T17:41:15.533Z,29.90
2022-12-01T17:43:41.972Z,28.10
2022-12-01T17:46:09.890Z,26.77
2022-12-01T17:48:37.826Z,27.35
2022-12-01T17:51:05.437Z,26.38
2022-12-01T17:53:32.618Z,27.73
2022-12-01T17:55:58.729Z,26.80
2022-12-01T17:58:24.697Z,27.20
2022-12-01T18:00:52.811Z,28.70
2022-12-01T18:03:19.300Z,26.63
2022-12-01T18:06:00.030Z,26.38
2022-12-01T18:08:28.155Z,27.83
2022-12-01T18:10:54.672Z,26.75
2022-12-01T18:13:21.828Z,28.27
2022-12-01T18:15:48.928Z,27.27
2022-12-01T18:18:15.060Z,28.70
2022-12-01T18:20:42.338Z,28.02
2022-12-01T18:23:09.379Z,28.50
2022-12-01T18:25:36.693Z,28.88
2022-12-01T18:28:03.695Z,31.67
2022-12-01T18:30:30.239Z,30.65
2022-12-01T18:32:57.711Z,31.98
2022-12-01T18:35:27.420Z,34.40
2022-12-01T18:37:56.400Z,29.55
2022-12-01T18:40:23.585Z,32.05
2022-12-01T18:42:50.031Z,28.30
2022-12-01T18:45:20.847Z,26.85
2022-12-01T18:47:47.386Z,27.73
2022-12-01T18:50:13.402Z,26.90
2022-12-01T18:52:39.872Z,26.58
2022-12-01T18:55:06.568Z,29.02
2022-12-01T18:57:32.608Z,26.73
2022-12-01T18:59:58.503Z,24.85
2022-12-01T19:02:24.552Z,26.67
2022-12-01T19:04:51.526Z,26.10
2022-12-01T19:07:17.575Z,27.17
2022-12-01T19:09:43.462Z,26.67
2022-12-01T19:12:09.408Z,26.50
2022-12-01T19:14:35.267Z,26.45
2022-12-01T19:17:01.433Z,27.35
2022-12-01T19:19:27.341Z,25.90
2022-12-01T19:21:53.458Z,26.77
2022-12-01T19:24:19.482Z,25.25
2022-12-01T19:26:45.314Z,26.65
2022-12-01T19:29:11.420Z,25.23
2022-12-01T19:31:37.605Z,26.25
2022-12-01T19:34:03.922Z,25.70
2022-12-01T19:36:30.449Z,27.27
2022-12-01T19:38:57.837Z,27.50
2022-12-01T19:41:24.710Z,28.95
2022-12-01T19:43:52.377Z,28.33
2022-12-01T19:46:22.069Z,29.23
2022-12-01T19:48:53.833Z,29.33
2022-12-01T19:51:24.877Z,29.65
2022-12-01T19:53:52.392Z,28.75
2022-12-01T19:56:18.359Z,28.92
2022-12-01T19:58:44.683Z,29.67
2022-12-01T20:01:13.271Z,33.65
2022-12-01T20:03:40.020Z,29.95
2022-12-01T20:06:09.687Z,27.48
2022-12-01T20:08:36.283Z,28.67
2022-12-01T20:11:03.995Z,29.55
2022-12-01T20:13:31.942Z,28.13
2022-12-01T20:16:12.752Z,28.88
2022-12-01T20:18:39.969Z,28.42
2022-12-01T20:21:18.383Z,27.60
2022-12-01T20:23:57.008Z,27.63
2022-12-01T20:26:30.187Z,27.50
2022-12-01T20:29:00.284Z,26.67
2022-12-01T20:31:28.360Z,28.83
2022-12-01T20:33:56.637Z,27.30
2022-12-01T20:36:23.309Z,25.92
2022-12-01T20:38:49.388Z,29.10
2022-12-01T20:41:16.274Z,27.55
2022-12-01T20:43:42.189Z,28.85
2022-12-01T20:46:08.720Z,28.73
2022-12-01T20:48:34.765Z,28.25
2022-12-01T20:51:03.021Z,26.00
2022-12-01T20:53:29.572Z,26.02
2022-12-01T20:55:55.676Z,26.27
2022-12-01T20:58:21.927Z,25.63
2022-12-01T21:00:48.091Z,25.83
2022-12-01T21:03:14.422Z,23.80
2022-12-01T21:05:42.915Z,26.88
2022-12-01T21:08:12.197Z,26.90
2022-12-01T21:10:40.119Z,26.63
2022-12-01T21:13:38.855Z,24.08
2022-12-01T21:16:14.048Z,25.35
2022-12-01T21:18:54.578Z,25.73
2022-12-01T21:21:26.946Z,23.80
2022-12-01T21:24:07.751Z,22.33
2022-12-01T21:26:36.413Z,22.75
2022-12-01T21:29:28.199Z,21.88
2022-12-01T21:32:04.574Z,24.30
2022-12-01T21:34:34.931Z,22.15
2022-12-01T21:37:05.985Z,22.58
2022-12-01T21:39:33.985Z,25.38
2022-12-01T21:42:13.237Z,24.20
2022-12-01T21:44:39.432Z,24.45
2022-12-01T21:47:21.293Z,24.42
2022-12-01T21:49:56.315Z,23.17
2022-12-01T21:52:29.216Z,23.50
2022-12-01T21:55:21.482Z,22.23
2022-12-01T21:57:49.845Z,23.92
2022-12-01T22:00:30.947Z,23.30
2022-12-01T22:03:08.981Z,22.23
2022-12-01T22:05:40.735Z,23.23
2022-12-01T22:08:06.957Z,22.63
2022-12-01T22:10:55.421Z,23.38
2022-12-01T22:13:26.815Z,23.13
2022-12-01T22:15:54.485Z,23.35
2022-12-01T22:18:28.870Z,23.10
2022-12-01T22:20:55.615Z,21.83
2022-12-01T22:23:28.749Z,19.63
2022-12-01T22:25:54.751Z,20.85
2022-12-01T22:28:24.228Z,21.63
2022-12-01T22:30:51.482Z,20.92
2022-12-01T22:33:23.802Z,21.23
2022-12-01T22:35:52.097Z,21.25
2022-12-01T22:38:28.189Z,23.63
2022-12-01T22:41:02.677Z,22.83
2022-12-01T22:43:41.113Z,23.45
2022-12-01T22:46:23.783Z,22.23
2022-12-01T22:49:20.324Z,25.38
2022-12-01T22:54:16.525Z,24.27
2022-12-01T22:57:09.174Z,24.52
2022-12-01T22:59:37.387Z,23.67
2022-12-01T23:02:21.324Z,24.65
2022-12-01T23:04:51.412Z,24.83
2022-12-01T23:07:34.843Z,25.00
2022-12-01T23:10:08.653Z,26.13
2022-12-01T23:12:35.684Z,24.35
2022-12-01T23:15:20.719Z,23.10
2022-12-01T23:17:46.874Z,24.52
2022-12-01T23:20:27.409Z,24.15
2022-12-01T23:22:55.119Z,23.55
2022-12-01T23:25:22.863Z,24.40
2022-12-01T23:27:51.459Z,23.23
2022-12-01T23:30:20.453Z,24.60
2022-12-01T23:32:56.115Z,24.80
2022-12-01T23:37:48.464Z,24.33
2022-12-01T23:40:18.044Z,25.02
2022-12-01T23:42:44.016Z,25.15
2022-12-01T23:45:22.572Z,23.90
2022-12-01T23:47:49.380Z,25.90
2022-12-01T23:50:19.683Z,24.77
2022-12-01T23:52:45.651Z,25.85
2022-12-01T23:55:19.821Z,26.02
2022-12-01T23:57:45.678Z,24.80
